Time;durP1;ratioP1;P1;durP2;ratioP2;P2;SDS_P1;SDS_P2;PMS_P1;PMS_P2;Temp;Humidity;BMP_temperature;BMP_pressure;BME280_temperature;BME280_humidity;BME280_pressure;Samples;Min_cycle;Max_cycle;Signal;HPM_P1;HPM_P2
2023/09/24 00:00:41;;;;;;;6.15;5.05;;;;;;;15.20;67.74;100879.84;10308137;28;20097;-63
2023/09/24 00:05:43;;;;;;;7.07;4.35;;;;;;;15.09;68.15;100871.94;10310384;28;20050;-63
2023/09/24 00:10:50;;;;;;;7.18;4.45;;;;;;;15.11;67.61;100894.09;10307309;28;20046;-64
2023/09/24 00:15:52;;;;;;;5.78;4.60;;;;;;;15.04;68.97;100887.56;10307513;28;20050;-62
2023/09/24 00:20:54;;;;;;;5.82;4.30;;;;;;;15.11;68.76;100909.34;10308670;28;20048;-63
2023/09/24 00:25:56;;;;;;;5.97;3.85;;;;;;;15.08;67.83;100904.25;10308576;28;20054;-64
2023/09/24 00:31:00;;;;;;;4.95;3.13;;;;;;;14.95;67.50;100904.50;10309696;28;20095;-63
2023/09/24 00:36:02;;;;;;;5.70;2.95;;;;;;;14.87;68.12;100896.28;10306387;28;20054;-63
2023/09/24 00:41:05;;;;;;;4.05;2.20;;;;;;;14.89;67.25;100903.19;10304302;28;20181;-62
2023/09/24 00:46:09;;;;;;;4.35;3.03;;;;;;;14.82;68.47;100910.94;10307920;28;20050;-64
2023/09/24 00:51:16;;;;;;;5.32;3.17;;;;;;;14.91;68.50;100919.16;10308942;28;20064;-63
2023/09/24 00:56:17;;;;;;;3.92;2.75;;;;;;;14.91;69.13;100924.53;10307182;28;20049;-63
2023/09/24 01:01:25;;;;;;;3.17;2.67;;;;;;;14.90;68.30;100918.31;10308546;28;20840;-63
2023/09/24 01:06:27;;;;;;;3.90;3.38;;;;;;;14.92;68.60;100918.16;10304686;28;20045;-64
2023/09/24 01:11:31;;;;;;;4.63;2.90;;;;;;;14.89;68.18;100927.31;10305034;28;20146;-63
2023/09/24 01:16:33;;;;;;;3.85;3.10;;;;;;;14.86;69.50;100941.00;10301868;28;20056;-63
2023/09/24 01:21:36;;;;;;;3.95;3.35;;;;;;;14.78;68.36;100936.31;10315691;28;20120;-64
2023/09/24 01:26:38;;;;;;;4.07;3.03;;;;;;;14.70;68.99;100922.75;10359702;28;20168;-64
2023/09/24 01:31:39;;;;;;;4.70;4.00;;;;;;;14.67;68.96;100920.34;10342969;28;20108;-63
2023/09/24 01:36:41;;;;;;;5.57;4.15;;;;;;;14.63;68.98;100922.41;10307141;28;20057;-63
2023/09/24 01:41:42;;;;;;;6.13;3.85;;;;;;;14.57;68.84;100922.09;10303620;28;20493;-63
2023/09/24 01:46:46;;;;;;;5.97;4.13;;;;;;;14.50;68.69;100919.94;10307155;28;20049;-63
2023/09/24 01:51:47;;;;;;;6.13;3.70;;;;;;;14.44;68.44;100924.97;10301576;28;20064;-63
2023/09/24 01:56:49;;;;;;;5.68;3.25;;;;;;;14.40;68.46;100928.91;10305621;28;20048;-63
2023/09/24 02:01:52;;;;;;;9.13;4.38;;;;;;;14.33;69.02;100931.25;10304315;28;20050;-63
2023/09/24 02:06:54;;;;;;;6.07;4.20;;;;;;;14.31;68.83;100950.13;10305374;28;20598;-63
2023/09/24 02:11:56;;;;;;;4.32;3.50;;;;;;;14.26;69.01;100944.31;10306225;28;20763;-64
2023/09/24 02:16:57;;;;;;;5.85;3.40;;;;;;;14.17;68.86;100936.22;10300184;28;20053;-64
2023/09/24 02:21:59;;;;;;;6.00;3.85;;;;;;;14.12;69.38;100945.47;10306638;28;20704;-62
2023/09/24 02:27:02;;;;;;;6.53;3.65;;;;;;;14.05;69.33;100954.16;10305360;28;20105;-64
2023/09/24 02:32:03;;;;;;;6.50;3.10;;;;;;;14.04;69.92;100958.66;10302221;28;20343;-64
2023/09/24 02:37:05;;;;;;;4.55;3.20;;;;;;;14.00;69.44;100967.09;10307020;28;20148;-63
2023/09/24 02:42:06;;;;;;;5.00;3.78;;;;;;;13.95;70.05;100970.16;10315802;28;20209;-63
2023/09/24 02:47:08;;;;;;;4.88;4.10;;;;;;;13.85;70.26;100962.03;10312863;28;20054;-63
2023/09/24 02:52:09;;;;;;;5.43;3.50;;;;;;;13.90;69.56;100977.69;10314934;28;20061;-63
2023/09/24 02:57:11;;;;;;;4.00;3.40;;;;;;;13.85;69.54;100979.91;10307965;28;20074;-61
2023/09/24 03:02:12;;;;;;;3.50;3.03;;;;;;;13.84;69.81;100988.91;10311206;28;20205;-63
2023/09/24 03:07:15;;;;;;;4.70;3.13;;;;;;;13.78;69.66;100996.47;10310507;28;20062;-62
2023/09/24 03:12:16;;;;;;;5.30;3.50;;;;;;;13.70;69.73;101004.28;10307243;28;20085;-64
2023/09/24 03:17:18;;;;;;;6.10;3.60;;;;;;;13.69;70.15;101002.59;10309314;28;20054;-63
2023/09/24 03:22:21;;;;;;;6.50;3.60;;;;;;;13.63;70.79;101000.41;10309885;28;20056;-64
2023/09/24 03:27:22;;;;;;;7.22;3.67;;;;;;;13.52;70.21;100995.91;10311009;28;20062;-64
2023/09/24 03:32:23;;;;;;;5.10;3.38;;;;;;;13.54;70.19;101009.16;10307937;28;20142;-64
2023/09/24 03:37:25;;;;;;;4.13;3.28;;;;;;;13.58;70.39;101015.97;10308200;28;20069;-63
2023/09/24 03:42:27;;;;;;;4.38;2.95;;;;;;;13.50;70.70;101018.44;10325749;28;20109;-64
2023/09/24 03:47:28;;;;;;;3.90;3.50;;;;;;;13.58;70.65;101032.03;10308038;28;20046;-65
2023/09/24 03:52:30;;;;;;;4.70;3.08;;;;;;;13.54;70.86;101035.91;10313446;28;20102;-63
2023/09/24 03:57:32;;;;;;;3.50;3.00;;;;;;;13.39;70.42;101017.47;10311072;28;20065;-64
2023/09/24 04:02:34;;;;;;;3.92;2.75;;;;;;;13.40;70.37;101029.00;10310469;28;20074;-64
2023/09/24 04:07:39;;;;;;;5.40;3.33;;;;;;;13.40;70.45;101034.34;10306426;28;20045;-63
2023/09/24 04:12:49;;;;;;;3.78;3.42;;;;;;;13.35;71.11;101032.06;10308974;28;20078;-65
2023/09/24 04:17:52;;;;;;;5.35;3.03;;;;;;;13.30;70.62;101038.69;10306219;28;20065;-66
2023/09/24 04:22:54;;;;;;;5.03;2.95;;;;;;;13.34;70.95;101051.72;10308188;28;21265;-64
2023/09/24 04:27:56;;;;;;;4.05;3.33;;;;;;;13.28;71.10;101041.50;10305546;28;20135;-63
2023/09/24 04:32:57;;;;;;;7.10;3.65;;;;;;;13.37;70.94;101067.53;10311968;28;20544;-63
2023/09/24 04:37:59;;;;;;;4.75;2.75;;;;;;;13.34;71.27;101067.78;10317904;28;20064;-63
2023/09/24 04:43:00;;;;;;;4.45;3.30;;;;;;;13.29;71.13;101082.47;10366130;28;20105;-63
2023/09/24 04:48:02;;;;;;;3.75;2.67;;;;;;;13.26;71.23;101087.06;10327825;28;20111;-64
2023/09/24 04:53:06;;;;;;;4.28;2.95;;;;;;;13.27;71.58;101091.47;10313927;28;20057;-64
2023/09/24 04:58:07;;;;;;;3.30;3.00;;;;;;;13.25;71.41;101095.22;10310934;28;20049;-63
2023/09/24 05:03:09;;;;;;;3.83;3.45;;;;;;;13.15;71.26;101099.56;10311198;28;20191;-63
2023/09/24 05:08:10;;;;;;;4.65;2.97;;;;;;;13.08;71.92;101097.38;10314317;28;20203;-63
2023/09/24 05:13:12;;;;;;;3.42;3.00;;;;;;;13.13;71.71;101122.91;10306469;28;20088;-64
2023/09/24 05:18:13;;;;;;;4.70;3.65;;;;;;;13.18;71.33;101137.63;10315627;28;20128;-63
2023/09/24 05:23:15;;;;;;;3.70;3.40;;;;;;;13.14;71.56;101146.84;10309686;28;20069;-63
2023/09/24 05:28:17;;;;;;;3.85;3.22;;;;;;;13.13;71.78;101157.66;10313422;28;20185;-65
2023/09/24 05:33:19;;;;;;;4.93;3.35;;;;;;;13.12;71.68;101153.28;10307428;28;20141;-63
2023/09/24 05:38:21;;;;;;;5.22;3.45;;;;;;;13.11;71.57;101162.28;10310528;28;20581;-63
2023/09/24 05:43:22;;;;;;;5.50;3.50;;;;;;;12.99;71.79;101154.22;10310383;28;20185;-64
2023/09/24 05:48:24;;;;;;;3.70;2.88;;;;;;;13.08;72.35;101177.56;10312314;28;20070;-62
2023/09/24 05:53:25;;;;;;;4.97;3.13;;;;;;;13.12;72.17;101193.38;10308397;28;20050;-64
2023/09/24 05:58:26;;;;;;;4.47;3.90;;;;;;;13.03;72.04;101181.56;10308848;28;20085;-64
2023/09/24 06:03:28;;;;;;;5.72;4.38;;;;;;;13.13;71.90;101198.59;10310279;28;20400;-63
2023/09/24 06:08:30;;;;;;;4.90;3.53;;;;;;;13.06;72.32;101187.53;10306326;28;20129;-63
2023/09/24 06:13:32;;;;;;;6.15;3.72;;;;;;;13.24;72.79;101209.34;10309676;28;20057;-63
2023/09/24 06:18:34;;;;;;;3.83;3.25;;;;;;;13.27;72.13;101194.91;10313085;28;20109;-63
2023/09/24 06:23:37;;;;;;;4.78;3.78;;;;;;;13.40;72.24;101198.31;10316755;28;20054;-63
2023/09/24 06:28:39;;;;;;;6.22;3.47;;;;;;;13.65;71.39;101228.53;10317850;28;20103;-63
2023/09/24 06:33:40;;;;;;;5.03;3.47;;;;;;;13.66;71.41;101216.88;10317583;28;20053;-64
2023/09/24 06:38:43;;;;;;;4.68;4.20;;;;;;;13.81;71.07;101225.53;10321812;28;20128;-64
2023/09/24 06:43:45;;;;;;;5.55;4.25;;;;;;;13.95;71.12;101240.47;10314263;28;20037;-63
2023/09/24 06:48:47;;;;;;;6.18;4.75;;;;;;;14.02;70.76;101228.31;10319052;28;20567;-63
2023/09/24 06:53:51;;;;;;;5.03;4.10;;;;;;;14.11;71.10;101232.94;10316354;28;20357;-63
2023/09/24 06:58:52;;;;;;;5.65;4.70;;;;;;;14.18;69.65;101240.47;10326412;28;20172;-63
2023/09/24 07:03:54;;;;;;;5.20;4.70;;;;;;;14.15;71.00;101239.72;10312481;28;20501;-63
2023/09/24 07:08:56;;;;;;;5.18;4.60;;;;;;;14.29;70.89;101221.69;10315311;28;20632;-63
2023/09/24 07:13:58;;;;;;;3.90;3.50;;;;;;;14.54;70.22;101242.00;10313733;28;20064;-63
2023/09/24 07:19:00;;;;;;;7.00;4.15;;;;;;;14.66;70.09;101232.13;10308796;28;20057;-63
2023/09/24 07:24:03;;;;;;;4.40;4.00;;;;;;;14.83;69.75;101245.00;10307244;28;20521;-62
2023/09/24 07:29:05;;;;;;;4.53;3.83;;;;;;;14.91;69.58;101238.16;10301492;28;20053;-63
2023/09/24 07:34:09;;;;;;;5.15;3.60;;;;;;;15.05;69.56;101237.84;10307071;28;20056;-63
2023/09/24 07:39:10;;;;;;;4.78;3.45;;;;;;;15.25;69.80;101248.72;10309070;28;20061;-63
2023/09/24 07:44:12;;;;;;;4.63;3.22;;;;;;;15.45;68.63;101244.34;10308885;28;20077;-62
2023/09/24 07:49:17;;;;;;;4.18;3.78;;;;;;;15.55;68.85;101240.75;10315600;28;20145;-64
2023/09/24 07:54:19;;;;;;;6.07;3.65;;;;;;;15.62;67.80;101241.06;10331056;28;20067;-65
2023/09/24 07:59:20;;;;;;;3.95;3.30;;;;;;;15.69;68.10;101244.06;10352507;28;20069;-63
2023/09/24 08:04:23;;;;;;;5.00;3.15;;;;;;;15.82;67.60;101242.06;10317460;28;20423;-64
2023/09/24 08:09:24;;;;;;;3.78;3.05;;;;;;;16.04;65.31;101248.22;10311192;28;20177;-64
2023/09/24 08:14:28;;;;;;;6.32;3.00;;;;;;;16.15;66.34;101252.63;10305809;28;20435;-64
2023/09/24 08:19:30;;;;;;;3.15;2.70;;;;;;;16.30;64.79;101245.91;10304303;28;20117;-66
2023/09/24 08:24:32;;;;;;;4.30;2.30;;;;;;;16.50;65.31;101256.69;10303692;28;20552;-64
2023/09/24 08:29:33;;;;;;;3.70;2.38;;;;;;;16.74;64.74;101259.03;10299395;28;20054;-64
2023/09/24 08:34:35;;;;;;;4.35;2.70;;;;;;;16.95;63.04;101259.78;10300226;28;20622;-65
2023/09/24 08:39:36;;;;;;;5.47;3.17;;;;;;;17.05;62.91;101249.00;10304835;28;20142;-63
2023/09/24 08:44:39;;;;;;;4.68;3.63;;;;;;;17.36;61.77;101272.25;10305464;28;20053;-66
2023/09/24 08:49:42;;;;;;;3.45;2.97;;;;;;;17.48;62.29;101246.88;10301127;28;20072;-65
2023/09/24 08:54:45;;;;;;;4.47;2.73;;;;;;;17.71;60.79;101255.44;10303305;28;20131;-64
2023/09/24 08:59:47;;;;;;;5.73;3.40;;;;;;;17.96;58.95;101256.69;10300963;28;20188;-64
2023/09/24 09:04:49;;;;;;;2.67;2.45;;;;;;;18.18;59.65;101270.78;10305433;28;20046;-64
2023/09/24 09:09:55;;;;;;;3.78;2.40;;;;;;;18.39;59.16;101267.84;10304894;28;20454;-62
2023/09/24 09:14:57;;;;;;;6.38;2.65;;;;;;;18.46;58.26;101260.00;10305888;28;20160;-64
2023/09/24 09:19:59;;;;;;;4.53;2.88;;;;;;;18.66;57.39;101269.69;10304956;28;20093;-65
2023/09/24 09:25:05;;;;;;;5.05;2.67;;;;;;;18.93;56.41;101267.97;10302278;28;20061;-66
2023/09/24 09:30:12;;;;;;;2.42;2.00;;;;;;;19.01;57.07;101241.06;10340960;28;20471;-64
2023/09/24 09:35:15;;;;;;;3.33;2.80;;;;;;;19.28;55.54;101252.75;10326343;28;20115;-66
2023/09/24 09:40:18;;;;;;;5.13;2.97;;;;;;;19.26;55.71;101200.78;10330549;28;20048;-65
2023/09/24 09:45:21;;;;;;;3.33;2.67;;;;;;;19.69;54.71;101239.53;10340955;28;20048;-65
2023/09/24 09:50:25;;;;;;;3.45;2.53;;;;;;;19.93;52.33;101235.31;10340659;28;20076;-64
2023/09/24 09:55:28;;;;;;;3.67;2.47;;;;;;;20.02;51.89;101218.13;10342275;28;20042;-66
2023/09/24 10:00:29;;;;;;;3.25;2.13;;;;;;;20.18;51.35;101211.13;10323355;28;21017;-64
2023/09/24 10:05:31;;;;;;;3.45;2.20;;;;;;;20.99;50.96;101228.56;10341084;28;20069;-66
2023/09/24 10:10:34;;;;;;;4.57;2.70;;;;;;;21.10;48.58;101216.53;10324856;28;20059;-63
2023/09/24 10:15:35;;;;;;;3.90;2.45;;;;;;;21.14;50.06;101216.03;10341796;28;20123;-64
2023/09/24 10:20:49;;;;;;;3.28;2.33;;;;;;;21.44;49.40;101208.22;10325487;28;20050;-64
2023/09/24 10:25:51;;;;;;;2.47;2.00;;;;;;;21.61;48.68;101197.38;10338194;28;20049;-63
2023/09/24 10:31:06;;;;;;;3.78;1.73;;;;;;;21.77;46.47;101197.34;10336940;28;20839;-63
2023/09/24 10:36:21;;;;;;;1.95;1.20;;;;;;;21.96;47.97;101195.22;10348544;28;20057;-65
2023/09/24 10:41:22;;;;;;;3.47;1.15;;;;;;;22.31;45.72;101196.63;10349373;28;20476;-64
2023/09/24 10:46:29;;;;;;;3.53;1.30;;;;;;;22.57;46.26;101188.16;10345245;28;20053;-67
2023/09/24 10:51:31;;;;;;;1.98;1.02;;;;;;;22.68;45.38;101177.91;10347176;28;20084;-64
2023/09/24 10:56:33;;;;;;;1.73;1.23;;;;;;;22.92;44.51;101190.44;10347483;28;20057;-64
2023/09/24 11:01:34;;;;;;;3.65;1.52;;;;;;;23.15;43.88;101179.59;10350456;28;20222;-62
2023/09/24 11:06:36;;;;;;;4.10;1.45;;;;;;;23.37;43.92;101179.72;10350978;28;20061;-63
2023/09/24 11:11:38;;;;;;;3.10;1.10;;;;;;;23.71;43.26;101178.34;10364318;28;20720;-64
2023/09/24 11:16:40;;;;;;;1.92;1.08;;;;;;;23.92;42.78;101164.84;10361223;28;20361;-63
2023/09/24 11:21:42;;;;;;;3.28;0.85;;;;;;;24.24;41.77;101173.59;10338749;28;20053;-63
2023/09/24 11:26:44;;;;;;;2.88;0.70;;;;;;;24.24;39.94;101151.81;10354310;28;20053;-64
2023/09/24 11:31:47;;;;;;;2.30;0.90;;;;;;;24.76;39.44;101171.66;10337888;28;20155;-62
2023/09/24 11:36:53;;;;;;;2.80;0.77;;;;;;;25.09;38.25;101153.94;10347073;28;20099;-64
2023/09/24 11:41:56;;;;;;;3.55;1.10;;;;;;;25.39;37.33;101141.81;10335745;28;20147;-63
2023/09/24 11:46:58;;;;;;;2.80;0.80;;;;;;;25.75;36.88;101138.00;10333582;28;20063;-63
2023/09/24 11:52:07;;;;;;;3.03;0.65;;;;;;;26.30;37.77;101150.81;10348984;28;20136;-67
2023/09/24 11:57:09;;;;;;;2.05;0.60;;;;;;;26.70;36.36;101139.19;10353763;28;20784;-63
2023/09/24 12:02:11;;;;;;;2.47;0.85;;;;;;;26.88;34.27;101135.81;10347933;28;20053;-64
2023/09/24 12:07:13;;;;;;;2.07;0.60;;;;;;;27.36;34.11;101127.38;10345963;28;20069;-64
2023/09/24 12:12:14;;;;;;;1.30;0.80;;;;;;;27.96;32.96;101123.59;10348576;28;20065;-64
2023/09/24 12:17:16;;;;;;;1.30;0.50;;;;;;;28.53;32.28;101118.22;10347304;28;20111;-63
2023/09/24 12:22:17;;;;;;;1.33;0.32;;;;;;;29.18;30.22;101123.38;10324854;28;20077;-64
2023/09/24 12:27:19;;;;;;;3.57;0.57;;;;;;;30.07;29.66;101109.31;10330940;28;20136;-68
2023/09/24 12:32:23;;;;;;;1.70;0.40;;;;;;;31.35;26.59;101103.41;10309348;28;20049;-64
2023/09/24 12:37:24;;;;;;;1.30;0.40;;;;;;;30.81;27.38;101108.19;10307057;28;20115;-67
2023/09/24 12:42:30;;;;;;;1.13;0.50;;;;;;;30.66;27.53;101101.22;10303205;28;20072;-65
2023/09/24 12:47:33;;;;;;;2.25;0.50;;;;;;;30.66;27.85;101105.91;10307905;28;20053;-65
2023/09/24 12:52:44;;;;;;;0.57;0.20;;;;;;;30.78;26.86;101108.66;10308244;28;20067;-65
2023/09/24 12:57:46;;;;;;;2.40;0.65;;;;;;;30.81;26.17;101098.03;10312280;28;20076;-64
2023/09/24 13:02:48;;;;;;;;;;;;;;;31.02;25.58;101093.88;10306426;28;20768;-64
2023/09/24 13:07:50;;;;;;;4.55;0.52;;;;;;;31.17;25.47;101095.31;10305748;28;19929;-63
2023/09/24 13:12:53;;;;;;;0.70;0.30;;;;;;;31.22;26.45;101081.66;10306392;28;20128;-64
2023/09/24 13:17:55;;;;;;;1.70;0.50;;;;;;;31.37;24.87;101079.22;10303198;28;20945;-65
2023/09/24 13:22:56;;;;;;;1.10;0.38;;;;;;;30.60;26.76;101068.41;10305382;28;20203;-63
2023/09/24 13:27:58;;;;;;;1.25;0.57;;;;;;;30.88;24.84;101077.81;10297380;28;20200;-66
2023/09/24 13:32:59;;;;;;;;;;;;;;;30.39;26.12;101076.09;10301161;28;20196;-64
2023/09/24 13:38:02;;;;;;;1.15;0.30;;;;;;;30.25;27.09;101060.88;10312861;28;20021;-64
2023/09/24 13:43:05;;;;;;;0.70;0.28;;;;;;;31.04;25.54;101059.81;10342596;28;20062;-65
2023/09/24 13:48:08;;;;;;;1.83;0.32;;;;;;;30.61;25.95;101048.94;10358273;28;20080;-66
2023/09/24 13:53:10;;;;;;;1.20;0.15;;;;;;;29.50;26.03;101040.16;10324039;28;20108;-64
2023/09/24 13:58:12;;;;;;;;;;;;;;;28.64;27.81;101037.28;10312141;28;20058;-64
2023/09/24 14:03:14;;;;;;;1.88;0.68;;;;;;;28.11;28.45;101033.03;10305893;28;20483;-61
2023/09/24 14:13:37;;;;;;;1.15;0.15;;;;;;;26.94;30.32;101032.00;10301686;28;20058;-65
2023/09/24 14:18:39;;;;;;;2.42;0.60;;;;;;;26.23;31.40;101019.84;10298768;28;20093;-63
2023/09/24 14:23:40;;;;;;;2.53;0.22;;;;;;;25.89;32.31;101026.25;10302012;28;20054;-63
2023/09/24 14:28:42;;;;;;;1.48;0.30;;;;;;;25.53;33.74;101030.13;10306116;28;20051;-62
2023/09/24 14:33:44;;;;;;;1.73;0.70;;;;;;;25.13;34.62;101029.91;10301006;28;20069;-64
2023/09/24 14:38:45;;;;;;;1.13;0.30;;;;;;;24.82;34.53;101010.25;10309070;28;20061;-64
2023/09/24 14:43:47;;;;;;;1.65;0.35;;;;;;;24.68;34.90;101011.19;10309786;28;20298;-65
2023/09/24 14:48:48;;;;;;;1.75;0.55;;;;;;;24.47;35.52;101003.88;10310228;28;20042;-66
2023/09/24 14:53:50;;;;;;;1.48;0.30;;;;;;;24.14;36.96;100977.22;10307380;28;20065;-60
2023/09/24 14:58:52;;;;;;;2.30;0.53;;;;;;;23.88;36.83;100989.53;10307944;28;20631;-62
2023/09/24 15:03:54;;;;;;;1.05;0.40;;;;;;;23.62;37.59;100999.06;10308966;28;20046;-63
2023/09/24 15:08:55;;;;;;;0.95;0.30;;;;;;;23.51;38.41;100996.88;10309289;28;20053;-63
2023/09/24 15:13:57;;;;;;;2.38;0.40;;;;;;;23.52;38.94;101001.25;10307781;28;20054;-61
2023/09/24 15:18:59;;;;;;;1.40;0.45;;;;;;;23.48;38.94;100999.97;10309718;28;20076;-61
2023/09/24 15:24:00;;;;;;;0.85;0.55;;;;;;;23.34;39.47;100992.66;10311541;28;20054;-64
2023/09/24 15:29:01;;;;;;;2.05;0.52;;;;;;;23.25;39.86;100995.47;10309502;28;20050;-64
2023/09/24 15:34:03;;;;;;;1.52;0.65;;;;;;;23.03;40.80;100996.41;10303394;28;20615;-62
2023/09/24 15:39:04;;;;;;;3.70;0.30;;;;;;;22.95;40.91;100983.75;10306286;28;20895;-63
2023/09/24 15:44:07;;;;;;;1.70;0.60;;;;;;;22.84;40.60;100992.38;10305721;28;20140;-62
2023/09/24 15:49:09;;;;;;;0.60;0.40;;;;;;;22.79;41.10;100995.66;10311512;28;20510;-62
2023/09/24 15:54:10;;;;;;;1.90;0.60;;;;;;;22.62;39.60;100991.41;10303038;28;20556;-63
2023/09/24 15:59:12;;;;;;;1.63;0.88;;;;;;;22.45;40.81;100988.88;10306196;28;20046;-62
2023/09/24 16:04:13;;;;;;;1.67;0.80;;;;;;;22.44;41.06;100998.03;10301844;28;20488;-64
2023/09/24 16:09:15;;;;;;;0.88;0.40;;;;;;;22.34;40.26;101013.69;10310957;28;20715;-62
2023/09/24 16:14:16;;;;;;;0.93;0.50;;;;;;;22.21;40.81;100995.31;10308574;28;20778;-62
2023/09/24 16:19:17;;;;;;;0.77;0.43;;;;;;;22.10;41.72;101002.03;10309384;28;20054;-62
2023/09/24 16:24:19;;;;;;;1.50;0.40;;;;;;;22.03;40.74;100995.63;10307805;28;20590;-64
2023/09/24 16:29:21;;;;;;;0.57;0.40;;;;;;;21.93;39.89;101006.69;10308670;28;20564;-64
2023/09/24 16:34:22;;;;;;;0.55;0.30;;;;;;;21.77;40.47;101007.66;10310816;28;20058;-62
2023/09/24 16:39:24;;;;;;;0.65;0.40;;;;;;;21.58;40.42;101008.94;10339609;28;20061;-63
2023/09/24 16:44:28;;;;;;;1.15;0.38;;;;;;;21.40;40.97;100984.81;10379574;28;20114;-64
2023/09/24 16:49:30;;;;;;;0.50;0.30;;;;;;;21.53;41.35;101011.38;10350973;28;20092;-65
2023/09/24 16:54:31;;;;;;;0.70;0.22;;;;;;;21.39;40.80;100993.94;10344975;28;20049;-62
2023/09/24 16:59:33;;;;;;;1.33;0.60;;;;;;;21.39;41.14;101004.78;10343269;28;20144;-64
2023/09/24 17:04:36;;;;;;;0.82;0.60;;;;;;;21.33;42.68;101005.47;10342654;28;20073;-63
2023/09/24 17:09:38;;;;;;;1.67;0.43;;;;;;;21.29;41.77;101006.88;10338357;28;20049;-61
2023/09/24 17:14:39;;;;;;;2.13;0.40;;;;;;;21.16;42.05;101010.97;10337258;28;20061;-62
2023/09/24 17:19:45;;;;;;;1.20;0.50;;;;;;;21.10;43.34;101005.41;10339482;28;20492;-64
2023/09/24 17:24:49;;;;;;;0.90;0.60;;;;;;;20.84;43.59;100987.56;10340226;28;20057;-62
2023/09/24 17:29:51;;;;;;;1.23;0.45;;;;;;;20.90;44.07;101002.28;10340469;28;20077;-63
2023/09/24 17:34:52;;;;;;;4.30;1.20;;;;;;;20.74;44.59;100995.03;10339231;28;20065;-64
2023/09/24 17:39:54;;;;;;;1.85;1.00;;;;;;;20.72;44.75;100997.91;10299034;28;20056;-63
2023/09/24 17:44:55;;;;;;;2.55;1.27;;;;;;;20.59;45.40;100992.16;10304492;28;20078;-64
2023/09/24 17:49:57;;;;;;;2.63;1.40;;;;;;;20.35;45.29;100974.94;10302520;28;20139;-63
2023/09/24 17:54:58;;;;;;;1.52;1.20;;;;;;;20.45;46.41;101001.81;10302348;28;20050;-66
2023/09/24 18:00:00;;;;;;;1.73;0.88;;;;;;;20.36;46.59;100997.41;10304897;28;20050;-63
2023/09/24 18:05:01;;;;;;;2.47;0.75;;;;;;;20.19;47.06;100991.16;10306826;28;20097;-64
2023/09/24 18:10:04;;;;;;;2.13;0.88;;;;;;;20.27;47.79;101015.50;10306973;28;20301;-62
2023/09/24 18:15:06;;;;;;;1.27;1.02;;;;;;;20.01;48.30;100989.47;10302895;28;20092;-64
2023/09/24 18:20:08;;;;;;;0.82;0.70;;;;;;;20.14;48.37;101024.91;10293587;28;20168;-63
2023/09/24 18:25:09;;;;;;;1.48;0.88;;;;;;;19.95;48.55;101003.63;10302737;28;20092;-64
2023/09/24 18:30:11;;;;;;;1.40;0.85;;;;;;;19.92;48.69;101023.72;10301980;28;20119;-65
2023/09/24 18:35:12;;;;;;;2.53;1.10;;;;;;;19.88;49.53;101019.66;10301983;28;20061;-63
2023/09/24 18:40:14;;;;;;;2.03;1.38;;;;;;;19.80;49.67;101013.41;10298197;28;20065;-63
2023/09/24 18:45:15;;;;;;;2.33;1.60;;;;;;;19.77;50.00;101047.84;10298132;28;20053;-63
2023/09/24 18:50:17;;;;;;;2.97;1.60;;;;;;;19.66;50.42;101040.00;10304147;28;20504;-63
2023/09/24 18:55:18;;;;;;;2.10;1.25;;;;;;;19.61;50.67;101056.69;10300664;28;20053;-62
2023/09/24 19:00:19;;;;;;;3.72;1.92;;;;;;;19.53;51.15;101050.41;10302343;28;20046;-61
2023/09/24 19:05:21;;;;;;;2.97;2.17;;;;;;;19.45;51.91;101042.28;10303181;28;20052;-63
2023/09/24 19:10:23;;;;;;;2.88;1.90;;;;;;;19.40;52.31;101046.31;10298031;28;20539;-65
2023/09/24 19:15:24;;;;;;;2.75;1.88;;;;;;;19.33;52.65;101034.47;10303290;28;20054;-68
2023/09/24 19:20:26;;;;;;;4.28;2.22;;;;;;;19.19;52.67;101029.69;10302187;28;20065;-65
2023/09/24 19:25:28;;;;;;;2.80;1.52;;;;;;;19.25;53.17;101047.94;10306129;28;20131;-66
2023/09/24 19:30:30;;;;;;;3.35;2.05;;;;;;;19.08;53.42;101031.66;10308667;28;20431;-65
2023/09/24 19:35:32;;;;;;;2.65;1.77;;;;;;;19.12;53.49;101052.94;10305500;28;20096;-65
2023/09/24 19:40:34;;;;;;;3.85;2.05;;;;;;;19.04;53.29;101059.97;10304061;28;20056;-65
2023/09/24 19:45:35;;;;;;;2.63;1.48;;;;;;;18.88;53.63;101036.41;10305568;28;20305;-65
2023/09/24 19:50:37;;;;;;;3.53;2.58;;;;;;;18.78;53.59;101029.41;10303679;28;20229;-66
2023/09/24 19:55:45;;;;;;;4.63;2.35;;;;;;;18.71;54.03;101030.03;10302885;28;20478;-65
2023/09/24 20:00:46;;;;;;;2.17;1.50;;;;;;;18.66;54.37;101026.13;10305125;28;20049;-65
2023/09/24 20:05:48;;;;;;;3.30;1.75;;;;;;;18.72;54.21;101047.94;10303980;28;20060;-66
2023/09/24 20:10:49;;;;;;;2.33;1.48;;;;;;;18.37;55.07;101033.50;10305432;28;20125;-68
2023/09/24 20:15:51;;;;;;;2.30;1.80;;;;;;;18.47;55.14;101037.97;10304785;28;20050;-67
2023/09/24 20:20:53;;;;;;;2.60;1.80;;;;;;;18.40;55.07;101031.50;10306704;28;20101;-68
2023/09/24 20:25:54;;;;;;;3.10;1.75;;;;;;;18.42;55.50;101035.75;10304317;28;20062;-68
2023/09/24 20:30:58;;;;;;;2.90;1.65;;;;;;;18.36;55.44;101045.28;10301789;28;20148;-70
2023/09/24 20:35:59;;;;;;;2.00;1.30;;;;;;;18.25;55.56;101045.50;10301816;28;20224;-66
2023/09/24 20:41:07;;;;;;;2.83;1.30;;;;;;;18.14;56.55;101049.28;10299287;28;20041;-66
2023/09/24 20:46:12;;;;;;;2.53;1.17;;;;;;;18.06;56.74;101056.44;10303985;28;20068;-67
2023/09/24 20:51:14;;;;;;;1.60;0.95;;;;;;;17.85;56.99;101025.25;10299652;28;20053;-67
2023/09/24 20:56:15;;;;;;;2.58;1.30;;;;;;;17.76;57.59;101039.59;10300513;28;20404;-65
2023/09/24 21:01:18;;;;;;;2.75;1.10;;;;;;;17.83;57.73;101046.06;10298298;28;20061;-67
2023/09/24 21:06:20;;;;;;;2.70;1.43;;;;;;;17.76;58.29;101047.66;10303339;28;20156;-66
2023/09/24 21:11:21;;;;;;;3.65;1.00;;;;;;;17.63;59.17;101030.03;10300045;28;20296;-67
2023/09/24 21:16:23;;;;;;;2.33;1.20;;;;;;;17.68;59.48;101048.44;10301277;28;20152;-66
2023/09/24 21:21:26;;;;;;;2.03;1.15;;;;;;;17.62;59.71;101057.94;10301208;28;20054;-66
2023/09/24 21:26:28;;;;;;;;;;;;;;;17.57;60.29;101057.56;10296026;28;20050;-63
2023/09/24 21:31:29;;;;;;;4.18;1.40;;;;;;;17.29;60.43;101022.59;10313439;28;20138;-65
2023/09/24 21:36:32;;;;;;;1.58;1.48;;;;;;;17.34;60.96;101040.09;10301072;28;20077;-68
2023/09/24 21:41:34;;;;;;;1.40;1.30;;;;;;;17.36;61.18;101049.72;10292359;28;20607;-67
2023/09/24 21:46:36;;;;;;;4.63;1.63;;;;;;;17.31;61.10;101046.66;10298370;28;20054;-65
2023/09/24 21:51:37;;;;;;;2.15;1.70;;;;;;;17.22;61.12;101032.25;10296754;28;20053;-66
2023/09/24 21:56:39;;;;;;;3.13;2.10;;;;;;;17.16;61.81;101043.59;10297023;28;20054;-65
2023/09/24 22:01:41;;;;;;;2.60;2.00;;;;;;;17.13;61.29;101033.13;10298778;28;20188;-64
2023/09/24 22:06:42;;;;;;;2.67;1.90;;;;;;;16.98;61.67;101027.38;10294493;28;20590;-67
2023/09/24 22:11:44;;;;;;;2.40;1.60;;;;;;;16.90;62.04;101020.03;10297928;28;20050;-65
2023/09/24 22:16:47;;;;;;;2.90;1.55;;;;;;;16.86;62.26;101021.28;10297368;28;20061;-64
2023/09/24 22:21:49;;;;;;;1.73;1.33;;;;;;;16.65;62.41;100996.44;10297465;28;20564;-66
2023/09/24 22:26:50;;;;;;;3.28;1.52;;;;;;;16.85;62.20;101013.38;10296600;28;20607;-65
2023/09/24 22:31:52;;;;;;;2.95;1.23;;;;;;;16.76;62.82;101001.66;10295172;28;20050;-66
2023/09/24 22:36:53;;;;;;;2.03;1.60;;;;;;;16.70;62.82;101005.75;10293107;28;20254;-65
2023/09/24 22:41:54;;;;;;;2.55;1.30;;;;;;;16.65;63.44;100991.91;10292380;28;20107;-66
2023/09/24 22:46:58;;;;;;;2.53;1.40;;;;;;;16.69;63.22;100992.47;10292937;28;20315;-67
2023/09/24 22:52:00;;;;;;;2.42;1.17;;;;;;;16.65;63.44;100991.91;10298673;28;20393;-66
2023/09/24 22:57:01;;;;;;;4.38;1.70;;;;;;;16.64;63.11;100997.44;10306019;28;20076;-65
2023/09/24 23:02:04;;;;;;;2.70;1.52;;;;;;;16.50;63.54;100983.47;10303825;28;20524;-66
2023/09/24 23:07:06;;;;;;;3.25;1.77;;;;;;;16.56;63.31;100996.31;10303162;28;20063;-64
2023/09/24 23:12:09;;;;;;;2.30;1.80;;;;;;;16.32;63.85;100951.13;10305480;28;20050;-67
2023/09/24 23:17:10;;;;;;;2.45;1.42;;;;;;;16.50;63.64;100988.84;10300387;28;20610;-64